Time;durP1;ratioP1;P1;durP2;ratioP2;P2;SDS_P1;SDS_P2;PMS_P1;PMS_P2;Temp;Humidity;BMP_temperature;BMP_pressure;BME280_temperature;BME280_humidity;BME280_pressure;Samples;Min_cycle;Max_cycle;Signal;HPM_P1;HPM_P2
2023/11/05 00:00:27;;;;;;;2.10;0.60;;;;;;;10.33;89.57;97506.25;5033968;28;20538;-66
2023/11/05 00:02:55;;;;;;;3.20;0.97;;;;;;;10.35;89.88;97509.34;5033374;28;20475;-66
2023/11/05 00:05:21;;;;;;;2.00;0.50;;;;;;;10.32;89.86;97505.47;5033679;28;20843;-66
2023/11/05 00:07:48;;;;;;;1.90;0.50;;;;;;;10.37;89.32;97500.88;5033570;28;20518;-66
2023/11/05 00:10:15;;;;;;;3.30;0.87;;;;;;;10.31;89.33;97489.59;5033665;28;20469;-66
2023/11/05 00:12:41;;;;;;;3.93;0.93;;;;;;;10.30;89.88;97486.13;5033365;28;20435;-65
2023/11/05 00:15:09;;;;;;;3.17;0.63;;;;;;;10.37;88.68;97495.44;5033586;28;21003;-66
2023/11/05 00:17:36;;;;;;;2.00;0.60;;;;;;;10.42;88.10;97492.38;5033491;28;20573;-66
2023/11/05 00:20:07;;;;;;;2.00;0.50;;;;;;;10.43;88.85;97480.41;5032928;28;20958;-66
2023/11/05 00:22:33;;;;;;;2.10;0.57;;;;;;;10.46;89.02;97479.66;5033871;28;20428;-66
2023/11/05 00:25:00;;;;;;;1.90;0.40;;;;;;;10.46;89.67;97472.31;5033374;28;20565;-66
2023/11/05 00:27:27;;;;;;;2.10;0.70;;;;;;;10.44;89.99;97477.31;5033276;28;20439;-66
2023/11/05 00:29:54;;;;;;;2.67;0.60;;;;;;;10.44;90.55;97476.53;5033434;28;20467;-66
2023/11/05 00:32:20;;;;;;;2.10;0.50;;;;;;;10.48;89.70;97464.59;5033387;28;20927;-66
2023/11/05 00:34:47;;;;;;;3.27;0.80;;;;;;;10.49;89.67;97468.06;5033238;28;20901;-66
2023/11/05 00:37:15;;;;;;;2.60;0.90;;;;;;;10.49;90.04;97459.94;5033246;28;20514;-66
2023/11/05 00:39:43;;;;;;;2.00;0.60;;;;;;;10.48;89.82;97463.81;5033299;28;20453;-66
2023/11/05 00:42:09;;;;;;;2.33;0.60;;;;;;;10.47;89.70;97468.44;5033239;28;20447;-66
2023/11/05 00:44:36;;;;;;;3.53;0.67;;;;;;;10.45;90.99;97465.38;5047148;23;21069;-69
2023/11/05 00:47:02;;;;;;;1.90;0.53;;;;;;;10.44;90.94;97460.31;5033244;28;20522;-69
2023/11/05 00:49:29;;;;;;;2.20;0.47;;;;;;;10.46;90.86;97466.13;5033192;28;20554;-69
2023/11/05 00:51:56;;;;;;;2.73;0.70;;;;;;;10.49;90.72;97458.03;5033965;28;20477;-69
2023/11/05 00:54:24;;;;;;;2.00;0.50;;;;;;;10.50;90.51;97459.59;5032803;28;20490;-69
2023/11/05 00:56:51;;;;;;;2.70;0.60;;;;;;;10.54;90.11;97463.09;5033387;28;20483;-69
2023/11/05 00:59:19;;;;;;;2.20;0.63;;;;;;;10.52;91.29;97461.91;5032839;28;20497;-69
2023/11/05 01:01:45;;;;;;;1.93;0.50;;;;;;;10.54;90.61;97465.03;5033122;28;20451;-70
2023/11/05 01:04:12;;;;;;;1.80;0.40;;;;;;;10.50;90.73;97456.13;5032961;28;20877;-69
2023/11/05 01:06:38;;;;;;;2.00;0.57;;;;;;;10.49;90.67;97441.81;5033528;28;20837;-69
2023/11/05 01:09:05;;;;;;;2.00;0.60;;;;;;;10.49;90.37;97447.22;5033213;28;20493;-69
2023/11/05 01:11:33;;;;;;;2.07;0.57;;;;;;;10.54;90.08;97454.22;5033608;28;20442;-69
2023/11/05 01:14:00;;;;;;;1.90;0.50;;;;;;;10.56;89.93;97446.47;5033497;28;20913;-69
2023/11/05 01:16:27;;;;;;;1.80;0.40;;;;;;;10.57;89.61;97453.44;5032931;28;20926;-69
2023/11/05 01:18:54;;;;;;;2.00;0.63;;;;;;;10.56;89.61;97436.41;5032956;28;20439;-69
2023/11/05 01:21:20;;;;;;;1.90;0.50;;;;;;;10.55;89.70;97437.59;5032956;28;20450;-69
2023/11/05 01:23:47;;;;;;;1.90;0.47;;;;;;;10.56;89.97;97433.72;5033255;28;20827;-69
2023/11/05 01:26:14;;;;;;;2.00;0.50;;;;;;;10.58;90.68;97433.31;5032619;28;20509;-69
2023/11/05 01:28:42;;;;;;;2.30;0.60;;;;;;;10.60;90.96;97433.75;5033146;28;20434;-69
2023/11/05 01:31:08;;;;;;;1.83;0.40;;;;;;;10.62;90.77;97439.53;5033651;28;20475;-68
2023/11/05 01:33:35;;;;;;;1.80;0.40;;;;;;;10.68;91.05;97439.97;5036124;28;20467;-69
2023/11/05 01:36:02;;;;;;;2.20;0.50;;;;;;;10.69;91.32;97436.88;5036159;28;20480;-69
2023/11/05 01:38:28;;;;;;;2.37;0.60;;;;;;;10.76;89.91;97436.94;5036762;28;20569;-69
2023/11/05 01:40:55;;;;;;;1.87;0.40;;;;;;;10.77;90.59;97441.19;5036289;28;20439;-69
2023/11/05 01:43:21;;;;;;;2.07;0.50;;;;;;;10.79;91.06;97438.84;5035948;28;20502;-69
2023/11/05 01:45:50;;;;;;;1.90;0.47;;;;;;;10.81;91.46;97439.25;5036289;28;20534;-69
2023/11/05 01:48:17;;;;;;;2.00;0.60;;;;;;;10.81;92.29;97439.25;5036457;28;20798;-69
2023/11/05 01:50:44;;;;;;;1.83;0.40;;;;;;;10.78;93.66;97440.00;5035805;28;20447;-68
2023/11/05 01:53:10;;;;;;;1.90;0.50;;;;;;;10.72;95.59;97429.94;5036119;28;20537;-69
2023/11/05 01:55:37;;;;;;;1.80;0.40;;;;;;;10.66;97.76;97429.50;5036767;28;20474;-69
2023/11/05 01:58:04;;;;;;;2.00;0.57;;;;;;;10.59;98.03;97429.50;5036469;28;20483;-69
2023/11/05 02:00:32;;;;;;;1.87;0.40;;;;;;;10.52;99.54;97432.16;5035982;28;20447;-69
2023/11/05 02:03:00;;;;;;;1.93;0.47;;;;;;;10.49;99.04;97428.28;5036572;28;20431;-69
2023/11/05 02:05:26;;;;;;;2.30;0.53;;;;;;;10.46;100.00;97430.97;5035916;28;21122;-69
2023/11/05 02:07:53;;;;;;;1.87;0.50;;;;;;;10.48;100.00;97434.06;5035554;28;20438;-69
2023/11/05 02:10:19;;;;;;;1.80;0.40;;;;;;;10.45;100.00;97435.59;5035800;28;20450;-69
2023/11/05 02:12:57;;;;;;;3.47;0.90;;;;;;;10.42;100.00;97427.47;5036124;28;20539;-69
2023/11/05 02:15:23;;;;;;;2.10;0.60;;;;;;;10.37;100.00;97433.22;5036318;28;20476;-69
2023/11/05 02:17:49;;;;;;;3.53;0.70;;;;;;;10.34;100.00;97432.03;5035486;28;20568;-69
2023/11/05 02:20:17;;;;;;;2.00;0.60;;;;;;;10.27;100.00;97430.06;5035481;28;20853;-69
2023/11/05 02:22:47;;;;;;;2.50;0.73;;;;;;;10.22;100.00;97430.38;5036077;28;20266;-69
2023/11/05 02:25:18;;;;;;;1.87;0.40;;;;;;;10.19;100.00;97433.06;5035109;28;20935;-69
2023/11/05 02:27:46;;;;;;;2.73;0.63;;;;;;;10.07;100.00;97440.31;5035844;28;20422;-69
2023/11/05 02:30:16;;;;;;;2.00;0.50;;;;;;;10.06;100.00;97435.31;5035032;28;20926;-69
2023/11/05 02:32:43;;;;;;;3.07;0.50;;;;;;;10.04;100.00;97434.88;5035352;28;20801;-69
2023/11/05 02:35:10;;;;;;;1.77;0.40;;;;;;;9.99;100.00;97435.22;5035166;28;20516;-69
2023/11/05 02:37:36;;;;;;;2.23;0.80;;;;;;;9.95;100.00;97437.13;5035424;28;20528;-69
2023/11/05 02:40:03;;;;;;;1.90;0.40;;;;;;;9.89;100.00;97436.72;5035163;28;20526;-69
2023/11/05 02:42:31;;;;;;;3.70;0.50;;;;;;;9.86;100.00;97422.00;5034673;28;20505;-69
2023/11/05 02:44:58;;;;;;;1.90;0.40;;;;;;;9.85;100.00;97427.78;5034663;28;20509;-68
2023/11/05 02:47:25;;;;;;;2.07;0.60;;;;;;;9.81;100.00;97424.28;5035141;28;20443;-68
2023/11/05 02:49:52;;;;;;;2.00;0.40;;;;;;;9.82;100.00;97425.81;5034723;28;20446;-69
2023/11/05 02:52:18;;;;;;;2.73;0.60;;;;;;;9.82;100.00;97418.47;5035228;28;20470;-69
2023/11/05 02:54:45;;;;;;;2.10;0.53;;;;;;;9.83;100.00;97424.69;5034526;28;20538;-68
2023/11/05 02:57:11;;;;;;;1.97;0.47;;;;;;;9.79;100.00;97421.97;5035297;28;20487;-66
2023/11/05 02:59:39;;;;;;;2.10;0.50;;;;;;;9.78;100.00;97422.31;5035069;28;20538;-68
2023/11/05 03:02:06;;;;;;;1.90;0.50;;;;;;;9.75;100.00;97426.56;5034625;28;20449;-68
2023/11/05 03:04:33;;;;;;;1.80;0.30;;;;;;;9.74;100.00;97411.50;5034645;28;20467;-68
2023/11/05 03:07:01;;;;;;;2.10;0.43;;;;;;;9.74;100.00;97426.91;5034699;28;20827;-69
2023/11/05 03:09:28;;;;;;;2.13;0.60;;;;;;;9.73;100.00;97418.03;5034337;28;20946;-69
2023/11/05 03:11:54;;;;;;;2.10;0.47;;;;;;;9.75;100.00;97415.75;5034177;28;21038;-69
2023/11/05 03:14:21;;;;;;;2.20;0.50;;;;;;;9.76;100.00;97403.78;5034728;28;20455;-69
2023/11/05 03:16:49;;;;;;;1.90;0.40;;;;;;;9.76;100.00;97403.00;5034525;28;20509;-69
2023/11/05 03:19:16;;;;;;;1.90;0.50;;;;;;;9.75;100.00;97390.66;5034555;28;20515;-69
2023/11/05 03:21:42;;;;;;;2.37;0.50;;;;;;;9.74;100.00;97392.56;5034753;28;20512;-69
2023/11/05 03:24:09;;;;;;;2.20;0.60;;;;;;;9.77;100.00;97393.72;5034272;28;20470;-69
2023/11/05 03:26:36;;;;;;;1.80;0.40;;;;;;;9.78;100.00;97387.97;5034293;28;20886;-69
2023/11/05 03:29:03;;;;;;;1.83;0.40;;;;;;;9.76;100.00;97386.78;5034280;28;20530;-69
2023/11/05 03:31:29;;;;;;;2.43;0.50;;;;;;;9.71;100.00;97389.84;5034310;28;20443;-69
2023/11/05 03:33:57;;;;;;;1.90;0.40;;;;;;;9.73;100.00;97385.59;5034164;28;20973;-69
2023/11/05 03:36:24;;;;;;;1.90;0.50;;;;;;;9.72;100.00;97381.34;5033927;28;20534;-69
2023/11/05 03:38:50;;;;;;;1.90;0.47;;;;;;;9.72;100.00;97378.66;5033969;28;21009;-69
2023/11/05 03:41:18;;;;;;;2.10;0.50;;;;;;;9.73;100.00;97382.88;5034731;28;20470;-69
2023/11/05 03:43:44;;;;;;;2.10;0.50;;;;;;;9.76;100.00;97379.44;5033731;28;20483;-69
2023/11/05 03:46:13;;;;;;;2.00;0.50;;;;;;;9.73;100.00;97376.72;5034139;28;20815;-69
2023/11/05 03:48:39;;;;;;;2.17;0.53;;;;;;;9.69;100.00;97378.59;5034107;28;20470;-69
2023/11/05 03:51:13;;;;;;;2.23;0.40;;;;;;;9.71;100.00;97379.81;5034120;28;20443;-69
2023/11/05 03:53:40;;;;;;;1.90;0.47;;;;;;;9.71;100.00;97385.19;5033555;28;20512;-69
2023/11/05 03:56:08;;;;;;;2.13;0.70;;;;;;;9.71;100.00;97387.13;5033909;28;20447;-69
2023/11/05 03:58:37;;;;;;;2.00;0.50;;;;;;;9.76;100.00;97384.84;5034046;28;20846;-69
2023/11/05 04:01:04;;;;;;;1.93;0.53;;;;;;;9.78;100.00;97382.56;5033673;28;20522;-68
2023/11/05 04:03:31;;;;;;;1.80;0.40;;;;;;;9.80;100.00;97379.47;5033346;28;20947;-68
2023/11/05 04:05:58;;;;;;;2.00;0.50;;;;;;;9.80;100.00;97366.75;5033805;28;20485;-68
2023/11/05 04:08:27;;;;;;;2.00;0.50;;;;;;;9.81;100.00;97372.91;5033787;28;20867;-68
2023/11/05 04:10:53;;;;;;;2.20;0.47;;;;;;;9.80;100.00;97369.44;5033728;28;20522;-68
2023/11/05 04:13:20;;;;;;;2.00;0.50;;;;;;;9.82;100.00;97364.44;5033629;28;20554;-68
2023/11/05 04:15:46;;;;;;;2.00;0.60;;;;;;;9.85;100.00;97360.97;5033334;28;20931;-68
2023/11/05 04:18:13;;;;;;;2.60;0.77;;;;;;;9.82;100.00;97369.84;5033689;28;20570;-68
2023/11/05 04:20:40;;;;;;;2.10;0.50;;;;;;;9.83;100.00;97363.28;5033572;28;20526;-68
2023/11/05 04:23:07;;;;;;;1.83;0.40;;;;;;;9.82;100.00;97366.34;5033360;28;20467;-68
2023/11/05 04:25:35;;;;;;;2.37;0.50;;;;;;;9.81;100.00;97362.88;5034066;28;20446;-68
2023/11/05 04:28:02;;;;;;;1.90;0.50;;;;;;;9.86;100.00;97365.22;5033682;28;20449;-68
2023/11/05 04:30:29;;;;;;;2.20;0.60;;;;;;;9.89;100.00;97362.94;5033888;28;20447;-68
2023/11/05 04:32:55;;;;;;;2.00;0.50;;;;;;;9.93;100.00;97363.75;5033894;28;20922;-68
2023/11/05 04:35:22;;;;;;;1.90;0.50;;;;;;;9.93;100.00;97369.16;5033956;28;20497;-69
2023/11/05 04:37:49;;;;;;;2.30;0.50;;;;;;;9.91;100.00;97356.00;5033493;28;20494;-69
2023/11/05 04:40:15;;;;;;;1.90;0.43;;;;;;;9.92;100.00;97345.97;5033112;28;20934;-69
2023/11/05 04:42:44;;;;;;;2.00;0.47;;;;;;;9.94;100.00;97360.66;5033479;28;20443;-69
2023/11/05 04:45:11;;;;;;;1.90;0.50;;;;;;;9.96;100.00;97357.56;5033102;28;20536;-68
2023/11/05 04:47:37;;;;;;;2.27;0.53;;;;;;;9.96;100.00;97355.66;5032971;28;20485;-69
2023/11/05 04:50:05;;;;;;;1.83;0.40;;;;;;;9.96;100.00;97360.28;5033191;28;20935;-69
2023/11/05 04:52:31;;;;;;;2.00;0.53;;;;;;;9.92;100.00;97360.28;5032903;28;20443;-69
2023/11/05 04:54:59;;;;;;;2.40;0.70;;;;;;;9.89;100.00;97355.59;5033647;28;20474;-69
2023/11/05 04:57:26;;;;;;;1.80;0.40;;;;;;;9.93;100.00;97358.34;5033471;28;20443;-69
2023/11/05 04:59:54;;;;;;;2.00;0.70;;;;;;;9.86;100.00;97365.22;5033668;28;20482;-69
2023/11/05 05:02:21;;;;;;;1.80;0.37;;;;;;;9.85;100.00;97360.97;5033165;28;20537;-69
2023/11/05 05:04:48;;;;;;;1.90;0.50;;;;;;;9.81;100.00;97362.88;5033219;28;20538;-69
2023/11/05 05:07:14;;;;;;;2.20;0.50;;;;;;;9.77;100.00;97362.06;5035626;28;20877;-69
2023/11/05 05:09:42;;;;;;;1.80;0.40;;;;;;;9.75;100.00;97363.63;5037072;28;20542;-69
2023/11/05 05:12:09;;;;;;;1.80;0.40;;;;;;;9.76;100.00;97355.13;5037062;28;20454;-69
2023/11/05 05:14:36;;;;;;;2.00;0.50;;;;;;;9.70;100.00;97351.22;5037219;28;20459;-69
2023/11/05 05:17:05;;;;;;;2.53;0.80;;;;;;;9.74;100.00;97352.03;5036768;28;20962;-69
2023/11/05 05:19:32;;;;;;;2.00;0.60;;;;;;;9.75;100.00;97348.16;5036477;28;20518;-69
2023/11/05 05:21:58;;;;;;;2.00;0.50;;;;;;;9.71;100.00;97347.38;5036499;28;20837;-69
2023/11/05 05:24:25;;;;;;;1.80;0.40;;;;;;;9.71;100.00;97339.25;5036642;28;20546;-69
2023/11/05 05:26:52;;;;;;;1.90;0.50;;;;;;;9.70;100.00;97347.75;5036849;28;20939;-69
2023/11/05 05:29:18;;;;;;;1.90;0.40;;;;;;;9.70;100.00;97347.75;5036395;28;20857;-69
2023/11/05 05:31:45;;;;;;;1.80;0.40;;;;;;;9.69;100.00;97344.25;5036549;28;20441;-69
2023/11/05 05:34:13;;;;;;;2.03;0.63;;;;;;;9.70;100.00;97350.47;5036442;28;20459;-69
2023/11/05 05:36:41;;;;;;;2.33;0.57;;;;;;;9.72;100.00;97340.03;5036174;28;20445;-68
2023/11/05 05:39:08;;;;;;;1.80;0.40;;;;;;;9.72;100.00;97338.09;5036542;28;20487;-70
2023/11/05 05:41:35;;;;;;;2.00;0.50;;;;;;;9.70;100.00;97340.41;5036730;28;20541;-68
2023/11/05 05:44:01;;;;;;;1.83;0.37;;;;;;;9.68;100.00;97339.22;5036150;28;20913;-69
2023/11/05 05:46:28;;;;;;;1.90;0.40;;;;;;;9.63;100.00;97343.06;5036357;28;20466;-69
2023/11/05 05:48:55;;;;;;;1.97;0.60;;;;;;;9.64;100.00;97344.59;5036425;28;20435;-68
2023/11/05 05:51:24;;;;;;;2.20;0.70;;;;;;;9.62;100.00;97352.31;5035982;28;21021;-67
2023/11/05 05:53:50;;;;;;;2.00;0.40;;;;;;;9.62;100.00;97344.22;5036611;28;20452;-69
2023/11/05 05:56:17;;;;;;;2.60;0.57;;;;;;;9.60;100.00;97338.38;5035789;28;20447;-70
2023/11/05 05:58:44;;;;;;;1.90;0.50;;;;;;;9.58;100.00;97341.47;5036069;28;20487;-69
2023/11/05 06:01:11;;;;;;;1.90;0.40;;;;;;;9.57;100.00;97347.25;5035955;28;20462;-70
2023/11/05 06:03:38;;;;;;;1.87;0.40;;;;;;;9.61;100.00;97339.97;5036055;28;20473;-69
2023/11/05 06:06:05;;;;;;;1.80;0.40;;;;;;;9.59;100.00;97340.31;5036214;28;20475;-69
2023/11/05 06:08:33;;;;;;;1.83;0.50;;;;;;;9.58;100.00;97333.38;5035991;28;20435;-69
2023/11/05 06:11:00;;;;;;;1.90;0.40;;;;;;;9.58;100.00;97336.06;5035906;28;20538;-69
2023/11/05 06:13:26;;;;;;;2.00;0.50;;;;;;;9.55;100.00;97342.22;5035956;28;20538;-69
2023/11/05 06:15:53;;;;;;;1.87;0.50;;;;;;;9.53;100.00;97341.81;5036256;28;20497;-69
2023/11/05 06:18:20;;;;;;;1.83;0.43;;;;;;;9.57;100.00;97331.06;5035350;28;20570;-69
2023/11/05 06:20:46;;;;;;;1.90;0.50;;;;;;;9.57;100.00;97331.06;5035457;28;20497;-70
2023/11/05 06:23:13;;;;;;;2.33;0.60;;;;;;;9.56;100.00;97324.06;5035632;28;20506;-70
2023/11/05 06:25:41;;;;;;;1.90;0.43;;;;;;;9.61;100.00;97326.44;5035601;28;20526;-70
2023/11/05 06:28:08;;;;;;;1.93;0.43;;;;;;;9.61;100.00;97321.06;5035590;28;20449;-70
2023/11/05 06:30:34;;;;;;;1.80;0.40;;;;;;;9.64;100.00;97316.81;5035195;28;20852;-70
2023/11/05 06:33:01;;;;;;;2.00;0.43;;;;;;;9.62;100.00;97322.59;5036014;28;20447;-69
2023/11/05 06:35:28;;;;;;;1.90;0.50;;;;;;;9.63;100.00;97318.75;5035350;28;20485;-70
2023/11/05 06:37:54;;;;;;;2.47;0.50;;;;;;;9.62;100.00;97316.41;5035634;28;20474;-70
2023/11/05 06:40:22;;;;;;;1.93;0.43;;;;;;;9.66;100.00;97307.19;5035157;28;21077;-69
2023/11/05 06:42:50;;;;;;;1.87;0.43;;;;;;;9.69;100.00;97317.22;5035092;28;20453;-69
2023/11/05 06:45:16;;;;;;;1.80;0.47;;;;;;;9.75;100.00;97310.34;5035116;28;20841;-69
2023/11/05 06:47:43;;;;;;;2.00;0.50;;;;;;;9.79;100.00;97313.84;5034735;28;20526;-69
2023/11/05 06:50:10;;;;;;;2.73;0.57;;;;;;;9.85;100.00;97315.03;5034896;28;20493;-69
2023/11/05 06:52:39;;;;;;;1.80;0.40;;;;;;;9.88;100.00;97313.50;5034974;28;20819;-69
2023/11/05 06:55:07;;;;;;;1.80;0.40;;;;;;;9.94;100.00;97314.69;5034688;28;20494;-69
2023/11/05 06:57:34;;;;;;;1.80;0.40;;;;;;;9.94;100.00;97313.94;5034833;28;20453;-69
2023/11/05 07:00:04;;;;;;;2.00;0.60;;;;;;;9.99;100.00;97308.16;5035101;28;20482;-70
2023/11/05 07:02:33;;;;;;;3.23;0.60;;;;;;;10.07;100.00;97307.81;5035217;28;20431;-70
2023/11/05 07:05:02;;;;;;;1.80;0.40;;;;;;;10.13;100.00;97313.63;5034298;28;20521;-70
2023/11/05 07:07:29;;;;;;;1.90;0.40;;;;;;;10.19;100.00;97322.19;5034801;28;20478;-70
2023/11/05 07:09:55;;;;;;;2.20;0.60;;;;;;;10.18;100.00;97312.50;5034794;28;20435;-70
2023/11/05 07:12:22;;;;;;;1.80;0.40;;;;;;;10.24;100.00;97314.50;5034856;28;20447;-70
2023/11/05 07:14:49;;;;;;;1.93;0.43;;;;;;;10.28;100.00;97315.31;5034497;28;20554;-71
2023/11/05 07:17:17;;;;;;;2.30;0.60;;;;;;;10.27;100.00;97300.25;5034735;28;20443;-70
2023/11/05 07:19:43;;;;;;;2.33;0.53;;;;;;;10.28;100.00;97307.19;5034400;28;20556;-69
2023/11/05 07:22:11;;;;;;;1.80;0.40;;;;;;;10.32;100.00;97299.88;5034444;28;20439;-69
2023/11/05 07:24:38;;;;;;;2.10;0.47;;;;;;;10.38;100.00;97307.63;5034931;28;20502;-69
2023/11/05 07:27:05;;;;;;;1.80;0.40;;;;;;;10.41;100.00;97307.63;5034704;28;20537;-70
2023/11/05 07:29:32;;;;;;;1.90;0.40;;;;;;;10.42;100.00;97294.88;5033529;28;20450;-70
2023/11/05 07:31:59;;;;;;;2.13;0.57;;;;;;;10.40;100.00;97297.94;5033925;28;20927;-69
2023/11/05 07:34:27;;;;;;;1.87;0.40;;;;;;;10.44;100.00;97292.56;5034221;28;20914;-69
2023/11/05 07:36:53;;;;;;;2.60;0.60;;;;;;;10.46;100.00;97303.78;5034075;28;20518;-69
2023/11/05 07:39:20;;;;;;;2.00;0.50;;;;;;;10.49;100.00;97292.19;5034058;28;20487;-69
2023/11/05 07:41:47;;;;;;;2.10;0.60;;;;;;;10.52;100.00;97296.84;5034551;28;20439;-69
2023/11/05 07:44:13;;;;;;;1.90;0.50;;;;;;;10.59;100.00;97299.56;5033698;28;20503;-69
2023/11/05 07:46:40;;;;;;;2.60;0.80;;;;;;;10.64;100.00;97290.31;5034017;28;20526;-69
2023/11/05 07:49:07;;;;;;;2.10;0.60;;;;;;;10.69;100.00;97292.66;5033716;28;20446;-69
2023/11/05 07:51:35;;;;;;;2.10;0.50;;;;;;;10.71;100.00;97296.50;5034623;28;20451;-69
2023/11/05 07:54:03;;;;;;;2.40;0.77;;;;;;;10.74;100.00;97298.44;5033819;28;20537;-70
2023/11/05 07:56:30;;;;;;;2.07;0.50;;;;;;;10.78;100.00;97295.75;5034075;28;20449;-70
2023/11/05 07:58:57;;;;;;;1.83;0.43;;;;;;;10.82;100.00;97305.44;5034161;28;20574;-70
2023/11/05 08:01:24;;;;;;;2.73;0.70;;;;;;;10.88;100.00;97296.94;5033671;28;21014;-70
2023/11/05 08:03:50;;;;;;;2.10;0.60;;;;;;;10.94;100.00;97306.25;5033659;28;20476;-70
2023/11/05 08:06:17;;;;;;;1.87;0.43;;;;;;;10.99;100.00;97306.66;5033701;28;20443;-70
2023/11/05 08:08:45;;;;;;;1.80;0.40;;;;;;;11.03;100.00;97312.06;5033635;28;20534;-70
2023/11/05 08:11:12;;;;;;;1.90;0.43;;;;;;;11.05;100.00;97312.44;5033326;28;20527;-70
2023/11/05 08:13:39;;;;;;;2.10;0.70;;;;;;;11.09;100.00;97308.59;5033530;28;20463;-70
2023/11/05 08:16:07;;;;;;;1.90;0.40;;;;;;;11.04;100.00;97308.97;5033535;28;20479;-70
2023/11/05 08:18:34;;;;;;;1.80;0.40;;;;;;;11.07;100.00;97299.31;5033525;28;20455;-70
2023/11/05 08:21:02;;;;;;;1.90;0.40;;;;;;;11.10;100.00;97299.28;5033509;28;20585;-70
2023/11/05 08:23:29;;;;;;;2.00;0.50;;;;;;;11.12;100.00;97296.22;5033369;28;20521;-70
2023/11/05 08:25:59;;;;;;;1.87;0.40;;;;;;;11.08;100.00;97300.84;5033529;28;20477;-71
2023/11/05 08:28:25;;;;;;;2.00;0.43;;;;;;;11.10;100.00;97293.88;5033641;28;20449;-70
2023/11/05 08:30:52;;;;;;;2.10;0.50;;;;;;;11.02;100.00;97305.09;5033876;28;20435;-70
2023/11/05 08:33:19;;;;;;;1.90;0.50;;;;;;;11.07;100.00;97307.44;5033289;28;20478;-67
2023/11/05 08:35:46;;;;;;;1.80;0.40;;;;;;;11.08;100.00;97311.69;5033327;28;20526;-68
2023/11/05 08:38:13;;;;;;;1.83;0.43;;;;;;;11.10;100.00;97314.78;5033643;28;20538;-69
2023/11/05 08:40:41;;;;;;;1.90;0.50;;;;;;;11.10;100.00;97320.19;5034954;28;20561;-70
2023/11/05 08:43:08;;;;;;;1.90;0.50;;;;;;;11.10;100.00;97314.78;5036829;28;20535;-71
2023/11/05 08:45:35;;;;;;;2.40;0.50;;;;;;;11.08;100.00;97317.88;5037410;28;20447;-71
2023/11/05 08:48:02;;;;;;;2.00;0.50;;;;;;;11.06;100.00;97319.41;5037394;28;20796;-72
2023/11/05 08:50:29;;;;;;;2.03;0.50;;;;;;;11.08;100.00;97326.00;5037180;28;20436;-73
2023/11/05 08:52:55;;;;;;;2.43;0.67;;;;;;;11.09;100.00;97324.84;5036707;28;20443;-73
2023/11/05 08:55:28;;;;;;;1.90;0.40;;;;;;;11.11;100.00;97327.94;5037032;28;20526;-71
2023/11/05 08:57:56;;;;;;;1.80;0.40;;;;;;;11.15;100.00;97327.94;5037799;28;20485;-70
2023/11/05 09:00:26;;;;;;;2.10;0.60;;;;;;;11.16;100.00;97329.50;5036947;28;20486;-70
2023/11/05 09:02:53;;;;;;;2.50;0.60;;;;;;;11.15;100.00;97327.16;5037020;28;20442;-70
2023/11/05 09:05:22;;;;;;;1.87;0.43;;;;;;;11.16;100.00;97328.72;5037371;28;20459;-70
2023/11/05 09:07:50;;;;;;;2.37;0.63;;;;;;;11.15;100.00;97329.88;5037307;28;20447;-70
2023/11/05 09:10:17;;;;;;;2.50;0.80;;;;;;;11.14;100.00;97328.31;5036873;28;20462;-70
2023/11/05 09:12:43;;;;;;;2.13;0.70;;;;;;;11.16;100.00;97326.78;5037202;28;20457;-70
2023/11/05 09:15:11;;;;;;;2.00;0.60;;;;;;;11.28;100.00;97326.41;5036570;28;20494;-70
2023/11/05 09:17:39;;;;;;;2.10;0.70;;;;;;;11.33;100.00;97326.03;5036791;28;20450;-70
2023/11/05 09:20:09;;;;;;;2.00;0.70;;;;;;;11.34;100.00;97335.72;5036768;28;20489;-70
2023/11/05 09:22:36;;;;;;;2.17;0.60;;;;;;;11.41;100.00;97329.50;5036450;28;20457;-70
2023/11/05 09:25:04;;;;;;;2.10;0.60;;;;;;;11.40;100.00;97336.09;5036240;28;20966;-70
2023/11/05 09:27:31;;;;;;;2.10;0.43;;;;;;;11.37;100.00;97326.03;5036622;28;20443;-70
2023/11/05 09:29:58;;;;;;;3.07;0.67;;;;;;;11.36;100.00;97327.19;5036149;28;20477;-70
2023/11/05 09:32:25;;;;;;;2.00;0.60;;;;;;;11.36;100.00;97327.97;5036475;28;20477;-70
2023/11/05 09:34:53;;;;;;;2.00;0.60;;;;;;;11.39;100.00;97331.06;5036152;28;20967;-70
2023/11/05 09:37:19;;;;;;;1.90;0.40;;;;;;;11.36;100.00;97332.59;5036441;28;20489;-70
2023/11/05 09:39:46;;;;;;;2.27;0.70;;;;;;;11.36;100.00;97327.19;5036621;28;20533;-70
2023/11/05 09:42:16;;;;;;;2.53;0.70;;;;;;;11.35;100.00;97334.53;5035958;28;20886;-70
2023/11/05 09:44:44;;;;;;;2.70;0.70;;;;;;;11.40;100.00;97329.91;5036007;28;20565;-70
2023/11/05 09:47:12;;;;;;;2.00;0.50;;;;;;;11.43;100.00;97334.56;5036192;28;20471;-70
2023/11/05 09:49:39;;;;;;;2.00;0.40;;;;;;;11.40;100.00;97335.31;5036126;28;20521;-70
2023/11/05 09:52:11;;;;;;;2.10;0.50;;;;;;;11.40;100.00;97338.03;5034935;28;20447;-70
2023/11/05 09:54:40;;;;;;;2.40;0.80;;;;;;;11.39;100.00;97337.25;5036318;28;20461;-70
2023/11/05 09:57:07;;;;;;;2.17;0.60;;;;;;;11.35;100.00;97342.69;5036363;28;20452;-70
2023/11/05 09:59:34;;;;;;;1.80;0.40;;;;;;;11.39;100.00;97339.19;5036160;28;20901;-69
2023/11/05 10:02:00;;;;;;;1.90;0.50;;;;;;;11.37;100.00;97334.91;5035966;28;20474;-70
2023/11/05 10:04:27;;;;;;;1.87;0.47;;;;;;;11.35;100.00;97331.06;5036120;28;20542;-69
2023/11/05 10:06:54;;;;;;;1.90;0.50;;;;;;;11.38;100.00;97324.88;5035871;28;20527;-69
2023/11/05 10:09:23;;;;;;;2.10;0.60;;;;;;;11.41;100.00;97328.75;5035785;28;20443;-68
2023/11/05 10:11:50;;;;;;;2.20;0.70;;;;;;;11.40;100.00;97327.19;5035683;28;20451;-70
2023/11/05 10:14:17;;;;;;;2.33;0.77;;;;;;;11.35;100.00;97322.94;5035629;28;20499;-70
2023/11/05 10:16:43;;;;;;;3.70;0.50;;;;;;;11.36;100.00;97324.47;5035573;28;20518;-70
2023/11/05 10:19:10;;;;;;;2.30;0.70;;;;;;;11.35;100.00;97325.66;5035309;28;20423;-70
2023/11/05 10:21:38;;;;;;;2.10;0.60;;;;;;;11.33;100.00;97334.16;5035820;28;20438;-70
2023/11/05 10:24:07;;;;;;;1.93;0.43;;;;;;;11.34;100.00;97324.09;5035497;28;20542;-70
2023/11/05 10:26:35;;;;;;;2.83;0.80;;;;;;;11.47;100.00;97327.22;5035407;28;20447;-70
2023/11/05 10:29:02;;;;;;;2.53;0.63;;;;;;;11.57;100.00;97323.72;5035822;28;20524;-70
2023/11/05 10:31:29;;;;;;;1.90;0.50;;;;;;;11.67;100.00;97327.59;5034968;28;20439;-70
2023/11/05 10:33:59;;;;;;;2.53;0.80;;;;;;;11.71;100.00;97326.41;5035535;28;20499;-70
2023/11/05 10:36:26;;;;;;;2.27;0.63;;;;;;;11.70;100.00;97324.88;5035244;28;20486;-70
2023/11/05 10:38:53;;;;;;;2.10;0.60;;;;;;;11.79;100.00;97327.19;5034866;28;20435;-70
2023/11/05 10:41:20;;;;;;;2.10;0.70;;;;;;;11.90;100.00;97329.91;5035450;28;20483;-70
2023/11/05 10:43:49;;;;;;;2.30;0.67;;;;;;;11.91;100.00;97329.53;5035159;28;20574;-70
2023/11/05 10:46:17;;;;;;;2.27;0.80;;;;;;;11.88;100.00;97321.41;5035124;28;20509;-70
2023/11/05 10:48:45;;;;;;;2.10;0.60;;;;;;;11.86;100.00;97322.56;5035001;28;20538;-70
2023/11/05 10:51:13;;;;;;;2.00;0.53;;;;;;;11.85;100.00;97315.56;5035271;28;20797;-70
2023/11/05 10:53:43;;;;;;;2.93;0.67;;;;;;;11.92;100.00;97311.31;5035216;28;20542;-70
2023/11/05 10:56:29;;;;;;;2.77;0.60;;;;;;;11.91;100.00;97323.31;5034896;28;20439;-70
2023/11/05 10:58:57;;;;;;;1.97;0.50;;;;;;;12.01;100.00;97317.13;5034562;28;20862;-70
2023/11/05 11:01:28;;;;;;;2.33;0.67;;;;;;;12.07;100.00;97320.97;5034755;28;20488;-70
2023/11/05 11:04:00;;;;;;;2.77;0.70;;;;;;;12.13;100.00;97319.41;5034714;28;20463;-70
2023/11/05 11:06:26;;;;;;;1.90;0.40;;;;;;;12.14;100.00;97326.38;5034793;28;20442;-70
2023/11/05 11:08:59;;;;;;;2.47;0.80;;;;;;;12.25;100.00;97327.13;5034837;28;20526;-70
2023/11/05 11:11:26;;;;;;;1.87;0.53;;;;;;;12.42;100.00;97311.19;5034615;28;20435;-69
2023/11/05 11:14:07;;;;;;;2.30;0.63;;;;;;;12.45;100.00;97332.88;5034411;28;20546;-70
2023/11/05 11:16:37;;;;;;;2.60;0.83;;;;;;;12.62;99.78;97325.84;5034575;28;20475;-70
2023/11/05 11:19:08;;;;;;;2.10;0.60;;;;;;;12.81;99.91;97328.06;5034661;28;20510;-70
2023/11/05 11:21:38;;;;;;;2.00;0.60;;;;;;;13.19;99.08;97327.47;5034253;28;20471;-70
2023/11/05 11:24:23;;;;;;;2.20;0.50;;;;;;;13.66;96.89;97328.69;5034331;28;20459;-70
2023/11/05 11:26:50;;;;;;;2.03;0.60;;;;;;;13.50;93.48;97331.16;5030917;28;20489;-71
2023/11/05 11:29:20;;;;;;;2.00;0.50;;;;;;;13.29;93.80;97335.59;5033994;28;20493;-70